createdAt,value
2023-01-31T00:03:29.738Z,3.02
2023-01-31T00:08:52.847Z,3.06
2023-01-31T00:14:20.266Z,3.03
2023-01-31T00:19:42.263Z,3.16
2023-01-31T00:25:04.927Z,3.15
2023-01-31T00:30:26.909Z,3.17
2023-01-31T00:35:48.828Z,3.15
2023-01-31T00:41:11.146Z,3.16
2023-01-31T00:46:33.477Z,3.17
2023-01-31T00:51:55.357Z,3.19
2023-01-31T00:57:17.278Z,3.18
2023-01-31T01:02:39.147Z,3.18
2023-01-31T01:08:00.995Z,3.15
2023-01-31T01:13:22.867Z,3.09
2023-01-31T01:18:45.231Z,3.11
2023-01-31T01:24:14.223Z,3.08
2023-01-31T01:29:36.419Z,3.02
2023-01-31T01:34:58.299Z,2.94
2023-01-31T01:40:20.342Z,2.91
2023-01-31T01:45:42.310Z,2.91
2023-01-31T01:51:06.170Z,2.86
2023-01-31T01:56:34.235Z,2.77
2023-01-31T02:01:57.002Z,2.93
2023-01-31T02:07:19.459Z,3.05
2023-01-31T02:12:41.427Z,3.13
2023-01-31T02:18:03.498Z,3.13
2023-01-31T02:23:48.485Z,3.13
2023-01-31T02:29:16.333Z,3.23
2023-01-31T02:34:59.587Z,3.33
2023-01-31T02:40:43.307Z,3.13
2023-01-31T02:46:11.428Z,3.34
2023-01-31T02:51:44.143Z,3.39
2023-01-31T02:57:06.082Z,3.43
2023-01-31T03:02:28.801Z,3.49
2023-01-31T03:07:55.151Z,3.44
2023-01-31T03:13:16.941Z,3.50
2023-01-31T03:18:44.392Z,3.60
2023-01-31T03:24:07.971Z,3.59
2023-01-31T03:29:36.276Z,3.64
2023-01-31T03:34:58.528Z,3.74
2023-01-31T03:40:31.900Z,3.74
2023-01-31T03:46:07.402Z,3.72
2023-01-31T03:51:33.752Z,3.82
2023-01-31T03:57:00.201Z,3.70
2023-01-31T04:02:25.216Z,3.36
2023-01-31T04:07:47.255Z,3.72
2023-01-31T04:13:09.522Z,3.73
2023-01-31T04:18:31.405Z,3.62
2023-01-31T04:23:53.287Z,3.64
2023-01-31T04:29:15.285Z,3.71
2023-01-31T04:34:37.162Z,3.73
2023-01-31T04:39:59.142Z,3.73
2023-01-31T04:45:21.444Z,3.69
2023-01-31T04:50:43.649Z,3.62
2023-01-31T04:56:05.774Z,3.49
2023-01-31T05:01:27.780Z,3.49
2023-01-31T05:06:49.645Z,3.35
2023-01-31T05:12:11.588Z,3.27
2023-01-31T05:17:34.201Z,3.22
2023-01-31T05:22:56.054Z,3.21
2023-01-31T05:28:18.086Z,3.24
2023-01-31T05:33:40.226Z,3.41
2023-01-31T05:39:02.132Z,3.49
2023-01-31T05:44:24.225Z,3.36
2023-01-31T05:49:46.060Z,3.49
2023-01-31T05:55:08.423Z,3.40
2023-01-31T06:00:30.933Z,3.35
2023-01-31T06:05:53.481Z,3.29
2023-01-31T06:11:15.610Z,3.29
2023-01-31T06:16:37.477Z,3.23
2023-01-31T06:21:59.940Z,3.28
2023-01-31T06:27:21.779Z,3.39
2023-01-31T06:32:43.633Z,3.45
2023-01-31T06:38:06.880Z,3.54
2023-01-31T06:43:28.754Z,3.67
2023-01-31T06:48:50.604Z,3.65
2023-01-31T06:54:12.443Z,3.63
2023-01-31T06:59:34.365Z,3.72
2023-01-31T07:04:56.636Z,3.80
2023-01-31T07:10:18.544Z,3.85
2023-01-31T07:15:40.467Z,3.92
2023-01-31T07:21:02.364Z,4.00
2023-01-31T07:26:24.243Z,3.99
2023-01-31T07:31:46.179Z,4.08
2023-01-31T07:37:08.060Z,4.11
2023-01-31T07:42:29.949Z,4.11
2023-01-31T07:47:52.636Z,4.36
2023-01-31T07:53:14.530Z,4.34
2023-01-31T07:58:37.376Z,4.79
2023-01-31T08:04:02.834Z,4.72
2023-01-31T08:09:33.135Z,4.72
2023-01-31T08:14:54.954Z,5.06
2023-01-31T08:20:17.196Z,4.91
2023-01-31T08:25:39.047Z,4.69
2023-01-31T08:31:08.599Z,4.92
2023-01-31T08:36:31.526Z,4.91
2023-01-31T08:41:53.518Z,5.03
2023-01-31T08:47:15.384Z,5.10
2023-01-31T08:52:37.178Z,4.95
2023-01-31T08:58:00.582Z,5.69
2023-01-31T09:03:22.473Z,6.11
2023-01-31T09:08:44.535Z,7.23
2023-01-31T09:14:06.757Z,6.19
2023-01-31T09:19:28.630Z,6.07
2023-01-31T09:24:50.476Z,5.82
2023-01-31T09:30:12.628Z,5.48
2023-01-31T09:35:34.492Z,5.56
2023-01-31T09:40:58.891Z,5.35
2023-01-31T09:46:25.940Z,5.19
2023-01-31T09:51:53.723Z,5.27
2023-01-31T09:57:27.554Z,5.49
2023-01-31T10:03:24.621Z,5.50
2023-01-31T10:09:03.011Z,5.48
2023-01-31T10:14:41.866Z,5.27
2023-01-31T10:20:32.776Z,5.21
2023-01-31T10:25:59.813Z,5.48
2023-01-31T10:31:32.778Z,5.75
2023-01-31T10:37:05.324Z,5.37
2023-01-31T10:42:36.823Z,5.55
2023-01-31T10:48:11.098Z,6.05
2023-01-31T10:53:54.255Z,5.92
2023-01-31T10:59:31.139Z,6.33
2023-01-31T11:04:56.238Z,6.05
2023-01-31T11:10:30.109Z,5.92
2023-01-31T11:15:54.367Z,5.74
2023-01-31T11:21:26.050Z,5.30
2023-01-31T11:27:09.261Z,5.25
2023-01-31T11:32:35.556Z,5.44
2023-01-31T11:38:20.214Z,5.24
2023-01-31T11:43:42.559Z,5.27
2023-01-31T11:49:12.434Z,5.12
2023-01-31T11:54:34.930Z,5.06
2023-01-31T11:59:59.071Z,5.44
2023-01-31T12:05:36.563Z,5.66
2023-01-31T12:10:59.221Z,5.62
2023-01-31T12:16:26.531Z,5.86
2023-01-31T12:22:05.708Z,5.95
2023-01-31T12:27:33.608Z,6.38
2023-01-31T12:33:27.673Z,6.36
2023-01-31T12:38:58.425Z,6.49
2023-01-31T12:44:43.739Z,6.25
2023-01-31T12:50:29.929Z,5.98
2023-01-31T12:56:00.940Z,5.95
2023-01-31T13:01:42.606Z,5.70
2023-01-31T13:07:10.491Z,5.58
2023-01-31T13:12:35.142Z,5.55
2023-01-31T13:18:03.161Z,5.42
2023-01-31T13:23:31.171Z,5.21
2023-01-31T13:29:01.787Z,5.15
2023-01-31T13:34:39.744Z,4.95
2023-01-31T13:40:18.776Z,5.15
2023-01-31T13:45:48.252Z,5.02
2023-01-31T13:51:22.768Z,4.59
2023-01-31T13:56:50.784Z,4.49
2023-01-31T14:02:20.119Z,4.44
2023-01-31T14:07:41.946Z,4.47
2023-01-31T14:13:24.713Z,4.46
2023-01-31T14:18:46.667Z,4.30
2023-01-31T14:24:20.016Z,4.30
2023-01-31T14:29:43.791Z,4.14
2023-01-31T14:35:14.461Z,4.12
2023-01-31T14:40:54.304Z,3.98
2023-01-31T14:46:55.150Z,3.90
2023-01-31T14:52:19.824Z,3.95
2023-01-31T14:57:45.245Z,3.80
2023-01-31T15:03:28.172Z,3.61
2023-01-31T15:08:59.129Z,3.67
2023-01-31T15:14:48.008Z,3.72
2023-01-31T15:20:18.112Z,3.66
2023-01-31T15:25:44.706Z,3.57
2023-01-31T15:31:36.551Z,3.27
2023-01-31T15:37:13.784Z,3.31
2023-01-31T15:42:35.621Z,3.18
2023-01-31T15:48:11.353Z,3.14
2023-01-31T15:53:33.380Z,3.28
2023-01-31T15:58:57.544Z,3.20
2023-01-31T16:04:19.447Z,3.21
2023-01-31T16:09:41.443Z,3.25
2023-01-31T16:15:07.340Z,3.21
2023-01-31T16:20:39.852Z,3.05
2023-01-31T16:26:08.728Z,3.00
2023-01-31T16:31:34.692Z,3.07
2023-01-31T16:37:01.385Z,3.05
2023-01-31T16:42:24.823Z,2.85
2023-01-31T16:47:48.808Z,2.96
2023-01-31T16:53:30.156Z,2.88
2023-01-31T16:58:56.354Z,3.02
2023-01-31T17:04:21.189Z,2.94
2023-01-31T17:09:43.172Z,3.10
2023-01-31T17:15:14.771Z,3.02
2023-01-31T17:20:37.161Z,3.02
2023-01-31T17:25:59.013Z,3.04
2023-01-31T17:31:24.522Z,3.12
2023-01-31T17:36:46.376Z,3.06
2023-01-31T17:42:17.821Z,3.08
2023-01-31T17:47:39.732Z,2.97
2023-01-31T17:53:01.640Z,2.90
2023-01-31T17:58:24.574Z,2.94
2023-01-31T18:03:46.521Z,2.89
2023-01-31T18:09:08.493Z,2.94
2023-01-31T18:14:30.456Z,2.98
2023-01-31T18:19:52.306Z,2.95
2023-01-31T18:25:14.288Z,2.92
2023-01-31T18:30:36.177Z,2.92
2023-01-31T18:35:59.495Z,2.88
2023-01-31T18:41:21.516Z,2.91
2023-01-31T18:46:43.447Z,3.00
2023-01-31T18:52:06.181Z,3.09
2023-01-31T18:57:28.095Z,2.94
2023-01-31T19:02:54.563Z,2.89
2023-01-31T19:08:16.289Z,2.54
2023-01-31T19:13:38.433Z,2.80
2023-01-31T19:19:00.336Z,2.87
2023-01-31T19:24:22.266Z,2.76
2023-01-31T19:29:44.185Z,2.75
2023-01-31T19:35:06.601Z,2.71
2023-01-31T19:40:28.516Z,2.71
2023-01-31T19:45:50.447Z,2.69
2023-01-31T19:51:18.266Z,2.67
2023-01-31T19:56:40.278Z,2.75
2023-01-31T20:02:02.129Z,2.80
2023-01-31T20:07:24.075Z,2.81
2023-01-31T20:12:46.236Z,2.64
2023-01-31T20:18:08.112Z,2.78
2023-01-31T20:23:30.237Z,2.82
2023-01-31T20:28:52.218Z,2.92
2023-01-31T20:34:14.103Z,2.94
2023-01-31T20:39:36.002Z,3.06
2023-01-31T20:44:57.936Z,2.95
2023-01-31T20:50:20.054Z,2.94
2023-01-31T20:55:42.261Z,2.92
2023-01-31T21:01:06.504Z,2.93
2023-01-31T21:06:28.696Z,2.95
2023-01-31T21:11:50.691Z,2.77
2023-01-31T21:17:12.566Z,2.88
2023-01-31T21:22:34.812Z,2.98
2023-01-31T21:27:56.717Z,2.86
2023-01-31T21:33:18.598Z,2.93
2023-01-31T21:38:41.449Z,2.96
2023-01-31T21:44:04.145Z,3.01
2023-01-31T21:49:26.310Z,3.06
2023-01-31T21:54:48.144Z,3.05
2023-01-31T22:00:11.574Z,3.01
2023-01-31T22:05:33.428Z,2.79
2023-01-31T22:11:21.542Z,2.58
2023-01-31T22:16:44.244Z,2.41
2023-01-31T22:22:06.136Z,2.24
2023-01-31T22:27:27.986Z,2.24
2023-01-31T22:32:49.840Z,2.27
2023-01-31T22:38:11.711Z,2.19
2023-01-31T22:43:36.945Z,2.26
2023-01-31T22:48:58.847Z,2.35
2023-01-31T22:54:20.707Z,2.32
2023-01-31T22:59:42.601Z,2.45
2023-01-31T23:05:04.730Z,2.48
2023-01-31T23:10:27.354Z,2.64
2023-01-31T23:15:49.254Z,2.49
2023-01-31T23:21:18.259Z,2.67
2023-01-31T23:26:40.403Z,2.78
2023-01-31T23:32:02.346Z,2.81
2023-01-31T23:37:24.434Z,2.91
2023-01-31T23:42:46.448Z,3.10
2023-01-31T23:48:08.374Z,3.22
2023-01-31T23:53:30.319Z,3.25
2023-01-31T23:58:53.531Z,3.22
